sensor_id;sensor_type;location;lat;lon;timestamp;pressure;altitude;pressure_sealevel;temperature;humidity
44079;BME280;29744;49.078;12.878;2022-10-29T00:04:37;97234.03;;;16.28;44.81
44079;BME280;29744;49.078;12.878;2022-10-29T00:09:37;97239.44;;;16.28;44.69
44079;BME280;29744;49.078;12.878;2022-10-29T00:14:37;97234.81;;;16.29;44.62
44079;BME280;29744;49.078;12.878;2022-10-29T00:19:38;97241.81;;;16.30;44.64
44079;BME280;29744;49.078;12.878;2022-10-29T00:24:38;97245.66;;;16.29;45.04
44079;BME280;29744;49.078;12.878;2022-10-29T00:29:38;97255.34;;;16.30;44.93
44079;BME280;29744;49.078;12.878;2022-10-29T00:34:39;97250.75;;;16.30;44.75
44079;BME280;29744;49.078;12.878;2022-10-29T00:39:39;97258.56;;;16.32;44.92
44079;BME280;29744;49.078;12.878;2022-10-29T00:44:39;97257.75;;;16.31;44.47
44079;BME280;29744;49.078;12.878;2022-10-29T00:49:40;97253.63;;;16.34;44.38
44079;BME280;29744;49.078;12.878;2022-10-29T00:54:43;97253.13;;;16.32;44.84
44079;BME280;29744;49.078;12.878;2022-10-29T00:59:45;97249.94;;;16.30;44.80
44079;BME280;29744;49.078;12.878;2022-10-29T01:04:47;97246.75;;;16.28;44.94
44079;BME280;29744;49.078;12.878;2022-10-29T01:09:48;97248.84;;;16.31;44.98
44079;BME280;29744;49.078;12.878;2022-10-29T01:14:59;97243.09;;;16.32;44.65
44079;BME280;29744;49.078;12.878;2022-10-29T01:25:47;97226.06;;;16.32;44.94
44079;BME280;29744;49.078;12.878;2022-10-29T01:31:24;97222.25;;;16.33;44.89
44079;BME280;29744;49.078;12.878;2022-10-29T01:36:52;97237.69;;;16.32;44.51
44079;BME280;29744;49.078;12.878;2022-10-29T01:42:09;97230.38;;;16.33;44.73
44079;BME280;29744;49.078;12.878;2022-10-29T01:47:15;97229.88;;;16.31;45.06
44079;BME280;29744;49.078;12.878;2022-10-29T01:52:19;97239.13;;;16.30;44.81
44079;BME280;29744;49.078;12.878;2022-10-29T01:57:41;97234.81;;;16.29;44.48
44079;BME280;29744;49.078;12.878;2022-10-29T02:07:57;97236.91;;;16.32;44.53
44079;BME280;29744;49.078;12.878;2022-10-29T02:13:01;97244.69;;;16.33;44.47
44079;BME280;29744;49.078;12.878;2022-10-29T02:18:06;97237.69;;;16.32;44.76
44079;BME280;29744;49.078;12.878;2022-10-29T02:23:07;97245.50;;;16.34;44.95
44079;BME280;29744;49.078;12.878;2022-10-29T02:28:08;97240.09;;;16.34;44.40
44079;BME280;29744;49.078;12.878;2022-10-29T02:33:08;97246.28;;;16.34;44.62
44079;BME280;29744;49.078;12.878;2022-10-29T02:38:08;97238.97;;;16.35;44.42
44079;BME280;29744;49.078;12.878;2022-10-29T02:43:09;97238.66;;;16.36;44.61
44079;BME280;29744;49.078;12.878;2022-10-29T02:48:09;97230.84;;;16.35;45.02
44079;BME280;29744;49.078;12.878;2022-10-29T02:53:09;97229.75;;;16.36;44.71
44079;BME280;29744;49.078;12.878;2022-10-29T02:58:10;97225.13;;;16.36;44.85
44079;BME280;29744;49.078;12.878;2022-10-29T03:03:10;97216.22;;;16.36;44.59
44079;BME280;29744;49.078;12.878;2022-10-29T03:08:10;97217.78;;;16.37;44.98
44079;BME280;29744;49.078;12.878;2022-10-29T03:13:11;97216.22;;;16.36;44.76
44079;BME280;29744;49.078;12.878;2022-10-29T03:18:11;97213.50;;;16.36;44.83
44079;BME280;29744;49.078;12.878;2022-10-29T03:23:12;97214.28;;;16.36;44.61
44079;BME280;29744;49.078;12.878;2022-10-29T03:28:12;97211.59;;;16.36;44.67
44079;BME280;29744;49.078;12.878;2022-10-29T03:33:12;97205.38;;;16.36;44.28
44079;BME280;29744;49.078;12.878;2022-10-29T03:38:13;97201.56;;;16.37;44.37
44079;BME280;29744;49.078;12.878;2022-10-29T03:43:13;97199.97;;;16.36;44.71
44079;BME280;29744;49.078;12.878;2022-10-29T03:48:14;97206.19;;;16.36;44.65
44079;BME280;29744;49.078;12.878;2022-10-29T03:53:14;97199.97;;;16.36;44.63
44079;BME280;29744;49.078;12.878;2022-10-29T03:58:14;97198.06;;;16.36;45.00
44079;BME280;29744;49.078;12.878;2022-10-29T04:03:14;97201.88;;;16.35;44.48
44079;BME280;29744;49.078;12.878;2022-10-29T04:08:15;97201.06;;;16.35;44.42
44079;BME280;29744;49.078;12.878;2022-10-29T04:13:15;97210.78;;;16.36;44.62
44079;BME280;29744;49.078;12.878;2022-10-29T04:18:16;97215.41;;;16.35;44.61
44079;BME280;29744;49.078;12.878;2022-10-29T04:23:16;97204.56;;;16.35;44.30
44079;BME280;29744;49.078;12.878;2022-10-29T04:28:16;97196.47;;;16.35;44.34
44079;BME280;29744;49.078;12.878;2022-10-29T04:33:17;97188.34;;;16.35;44.65
44079;BME280;29744;49.078;12.878;2022-10-29T04:38:17;97181.34;;;16.34;44.80
44079;BME280;29744;49.078;12.878;2022-10-29T04:43:18;97177.81;;;16.34;44.50
44079;BME280;29744;49.078;12.878;2022-10-29T04:48:19;97192.97;;;16.35;44.62
44079;BME280;29744;49.078;12.878;2022-10-29T04:53:20;97211.91;;;16.35;44.30
44079;BME280;29744;49.078;12.878;2022-10-29T04:58:20;97209.19;;;16.35;44.42
44079;BME280;29744;49.078;12.878;2022-10-29T05:03:21;97201.06;;;16.35;44.70
44079;BME280;29744;49.078;12.878;2022-10-29T05:08:21;97210.31;;;16.34;44.67
44079;BME280;29744;49.078;12.878;2022-10-29T05:13:21;97198.69;;;16.33;44.71
44079;BME280;29744;49.078;12.878;2022-10-29T05:18:22;97198.69;;;16.33;44.67
44079;BME280;29744;49.078;12.878;2022-10-29T05:23:22;97200.91;;;16.31;44.67
44079;BME280;29744;49.078;12.878;2022-10-29T05:28:23;97190.09;;;16.31;44.34
44079;BME280;29744;49.078;12.878;2022-10-29T05:33:23;97195.19;;;16.33;44.36
44079;BME280;29744;49.078;12.878;2022-10-29T05:38:24;97199.81;;;16.32;44.37
44079;BME280;29744;49.078;12.878;2022-10-29T05:43:24;97204.41;;;16.32;44.63
44079;BME280;29744;49.078;12.878;2022-10-29T05:48:24;97211.75;;;16.31;44.37
44079;BME280;29744;49.078;12.878;2022-10-29T05:53:25;97210.94;;;16.31;44.32
44079;BME280;29744;49.078;12.878;2022-10-29T05:58:25;97215.25;;;16.32;44.51
44079;BME280;29744;49.078;12.878;2022-10-29T06:03:25;97229.09;;;16.30;44.62
44079;BME280;29744;49.078;12.878;2022-10-29T06:08:26;97233.72;;;16.30;44.86
44079;BME280;29744;49.078;12.878;2022-10-29T06:13:26;97237.53;;;16.29;44.78
44079;BME280;29744;49.078;12.878;2022-10-29T06:18:27;97250.75;;;16.30;44.67
44079;BME280;29744;49.078;12.878;2022-10-29T06:23:27;97258.06;;;16.30;44.37
44079;BME280;29744;49.078;12.878;2022-10-29T06:28:28;97254.56;;;16.29;44.85
44079;BME280;29744;49.078;12.878;2022-10-29T06:33:28;97262.19;;;16.27;44.77
44079;BME280;29744;49.078;12.878;2022-10-29T06:38:29;97259.31;;;16.24;44.44
44079;BME280;29744;49.078;12.878;2022-10-29T06:43:29;97259.81;;;16.26;44.44
44079;BME280;29744;49.078;12.878;2022-10-29T06:48:29;97263.63;;;16.25;44.96
44079;BME280;29744;49.078;12.878;2022-10-29T06:53:30;97262.34;;;16.22;44.66
44079;BME280;29744;49.078;12.878;2022-10-29T06:58:30;97266.66;;;16.23;44.64
44079;BME280;29744;49.078;12.878;2022-10-29T07:03:30;97262.66;;;16.21;44.47
44079;BME280;29744;49.078;12.878;2022-10-29T07:08:31;97273.50;;;16.21;44.65
44079;BME280;29744;49.078;12.878;2022-10-29T07:13:32;97268.06;;;16.21;44.52
44079;BME280;29744;49.078;12.878;2022-10-29T07:18:32;97272.38;;;16.22;45.15
44079;BME280;29744;49.078;12.878;2022-10-29T07:23:33;97269.97;;;16.20;44.81
44079;BME280;29744;49.078;12.878;2022-10-29T07:28:33;97275.41;;;16.20;44.63
44079;BME280;29744;49.078;12.878;2022-10-29T07:33:33;97278.91;;;16.21;44.91
44079;BME280;29744;49.078;12.878;2022-10-29T07:38:34;97282.41;;;16.21;44.78
44079;BME280;29744;49.078;12.878;2022-10-29T07:43:34;97283.50;;;16.20;45.01
44079;BME280;29744;49.078;12.878;2022-10-29T07:48:34;97293.22;;;16.21;44.84
44079;BME280;29744;49.078;12.878;2022-10-29T07:53:34;97290.53;;;16.21;45.03
44079;BME280;29744;49.078;12.878;2022-10-29T07:58:35;97296.72;;;16.22;44.57
44079;BME280;29744;49.078;12.878;2022-10-29T08:03:35;97299.44;;;16.22;44.82
44079;BME280;29744;49.078;12.878;2022-10-29T08:08:36;97295.31;;;16.24;44.76
44079;BME280;29744;49.078;12.878;2022-10-29T08:13:36;97290.69;;;16.25;45.03
44079;BME280;29744;49.078;12.878;2022-10-29T08:18:36;97290.69;;;16.25;44.67
44079;BME280;29744;49.078;12.878;2022-10-29T08:23:36;97290.22;;;16.23;44.73
44079;BME280;29744;49.078;12.878;2022-10-29T08:28:37;97279.69;;;16.21;44.85
44079;BME280;29744;49.078;12.878;2022-10-29T08:33:37;97284.31;;;16.21;44.63
44079;BME280;29744;49.078;12.878;2022-10-29T08:38:37;97277.31;;;16.20;44.63
44079;BME280;29744;49.078;12.878;2022-10-29T08:48:51;97269.81;;;16.17;44.65
44079;BME280;29744;49.078;12.878;2022-10-29T08:53:54;97263.78;;;16.20;44.92
44079;BME280;29744;49.078;12.878;2022-10-29T09:04:35;97259.78;;;16.17;44.99
44079;BME280;29744;49.078;12.878;2022-10-29T09:09:40;97258.34;;;16.20;44.85
44079;BME280;29744;49.078;12.878;2022-10-29T09:20:21;97258.34;;;16.20;45.15
44079;BME280;29744;49.078;12.878;2022-10-29T09:25:52;97259.63;;;16.22;44.76
44079;BME280;29744;49.078;12.878;2022-10-29T09:31:21;97242.59;;;16.22;44.79
44079;BME280;29744;49.078;12.878;2022-10-29T09:36:24;97257.41;;;16.24;44.65
44079;BME280;29744;49.078;12.878;2022-10-29T09:41:30;97263.31;;;16.26;45.10
44079;BME280;29744;49.078;12.878;2022-10-29T09:52:20;97266.19;;;16.30;44.79
44079;BME280;29744;49.078;12.878;2022-10-29T09:57:26;97256.16;;;16.30;44.58
44079;BME280;29744;49.078;12.878;2022-10-29T10:02:32;97257.44;;;16.33;44.89
44079;BME280;29744;49.078;12.878;2022-10-29T10:07:34;97254.72;;;16.33;45.10
44079;BME280;29744;49.078;12.878;2022-10-29T10:23:00;97242.47;;;16.35;44.98
44079;BME280;29744;49.078;12.878;2022-10-29T10:28:28;97247.09;;;16.35;44.76
44079;BME280;29744;49.078;12.878;2022-10-29T10:33:35;97244.06;;;16.36;44.57
44079;BME280;29744;49.078;12.878;2022-10-29T10:38:42;97230.53;;;16.36;44.63
44079;BME280;29744;49.078;12.878;2022-10-29T10:43:45;97225.91;;;16.37;44.36
44079;BME280;29744;49.078;12.878;2022-10-29T10:48:56;97222.09;;;16.38;44.44
44079;BME280;29744;49.078;12.878;2022-10-29T10:53:58;97219.88;;;16.40;44.79
44079;BME280;29744;49.078;12.878;2022-10-29T10:59:05;97207.44;;;16.39;44.73
44079;BME280;29744;49.078;12.878;2022-10-29T11:09:28;97204.25;;;16.37;44.49
44079;BME280;29744;49.078;12.878;2022-10-29T11:14:34;97198.53;;;16.38;44.56
44079;BME280;29744;49.078;12.878;2022-10-29T11:19:47;97198.53;;;16.38;44.55
44079;BME280;29744;49.078;12.878;2022-10-29T11:24:56;97194.72;;;16.39;44.27
44079;BME280;29744;49.078;12.878;2022-10-29T11:30:02;97187.38;;;16.40;44.80
44079;BME280;29744;49.078;12.878;2022-10-29T11:35:08;97187.38;;;16.40;44.43
44079;BME280;29744;49.078;12.878;2022-10-29T11:40:17;97184.19;;;16.38;44.40
44079;BME280;29744;49.078;12.878;2022-10-29T12:17:51;97145.81;;;16.36;44.94
44079;BME280;29744;49.078;12.878;2022-10-29T12:23:07;97139.63;;;16.35;44.79
44079;BME280;29744;49.078;12.878;2022-10-29T12:28:18;97138.50;;;16.36;44.70
44079;BME280;29744;49.078;12.878;2022-10-29T12:34:00;97135.00;;;16.36;45.03
44079;BME280;29744;49.078;12.878;2022-10-29T12:38:54;97133.88;;;16.37;44.85
44079;BME280;29744;49.078;12.878;2022-10-29T12:44:27;97133.41;;;16.35;44.85
44079;BME280;29744;49.078;12.878;2022-10-29T12:49:43;97123.38;;;16.35;44.48
44079;BME280;29744;49.078;12.878;2022-10-29T12:54:48;97120.34;;;16.37;44.83
44079;BME280;29744;49.078;12.878;2022-10-29T12:59:50;97113.19;;;16.32;44.80
44079;BME280;29744;49.078;12.878;2022-10-29T13:15:42;97103.31;;;16.36;44.76
44079;BME280;29744;49.078;12.878;2022-10-29T13:20:49;97106.50;;;16.38;45.01
44079;BME280;29744;49.078;12.878;2022-10-29T13:25:53;97084.84;;;16.38;44.88
44079;BME280;29744;49.078;12.878;2022-10-29T13:41:22;97075.59;;;16.39;44.67
44079;BME280;29744;49.078;12.878;2022-10-29T13:51:39;97068.78;;;16.42;44.75
44079;BME280;29744;49.078;12.878;2022-10-29T13:56:48;97059.38;;;16.39;45.01
44079;BME280;29744;49.078;12.878;2022-10-29T14:01:59;97070.19;;;16.39;44.68
44079;BME280;29744;49.078;12.878;2022-10-29T14:07:03;97067.47;;;16.39;45.01
44079;BME280;29744;49.078;12.878;2022-10-29T14:12:06;97060.16;;;16.40;44.89
44079;BME280;29744;49.078;12.878;2022-10-29T14:17:18;97058.28;;;16.40;44.81
44079;BME280;29744;49.078;12.878;2022-10-29T14:22:47;97065.09;;;16.38;44.75
44079;BME280;29744;49.078;12.878;2022-10-29T14:28:28;97052.34;;;16.38;44.90
44079;BME280;29744;49.078;12.878;2022-10-29T14:33:30;97052.84;;;16.40;44.83
44079;BME280;29744;49.078;12.878;2022-10-29T14:38:58;97050.94;;;16.41;44.63
44079;BME280;29744;49.078;12.878;2022-10-29T14:44:27;97049.66;;;16.38;44.83
44079;BME280;29744;49.078;12.878;2022-10-29T14:49:32;97049.84;;;16.42;44.57
44079;BME280;29744;49.078;12.878;2022-10-29T14:54:36;97043.91;;;16.40;44.78
44079;BME280;29744;49.078;12.878;2022-10-29T15:05:26;97049.03;;;16.41;44.80
44079;BME280;29744;49.078;12.878;2022-10-29T15:10:27;97049.03;;;16.41;45.07
44079;BME280;29744;49.078;12.878;2022-10-29T15:15:28;97048.72;;;16.43;44.79
44079;BME280;29744;49.078;12.878;2022-10-29T15:25:38;97044.41;;;16.42;45.13
44079;BME280;29744;49.078;12.878;2022-10-29T15:30:38;97054.13;;;16.43;44.80
44079;BME280;29744;49.078;12.878;2022-10-29T15:35:46;97052.53;;;16.42;44.57
44079;BME280;29744;49.078;12.878;2022-10-29T15:41:14;97056.84;;;16.43;44.67
44079;BME280;29744;49.078;12.878;2022-10-29T15:46:29;97057.16;;;16.41;44.77
44079;BME280;29744;49.078;12.878;2022-10-29T15:51:30;97060.97;;;16.40;44.80
44079;BME280;29744;49.078;12.878;2022-10-29T15:56:30;97060.66;;;16.42;44.86
44079;BME280;29744;49.078;12.878;2022-10-29T16:01:30;97057.44;;;16.40;44.66
44079;BME280;29744;49.078;12.878;2022-10-29T16:06:31;97058.28;;;16.40;44.53
44079;BME280;29744;49.078;12.878;2022-10-29T16:11:33;97070.69;;;16.41;44.85
44079;BME280;29744;49.078;12.878;2022-10-29T16:16:35;97066.41;;;16.40;44.72
44079;BME280;29744;49.078;12.878;2022-10-29T16:21:36;97063.97;;;16.39;44.95
44079;BME280;29744;49.078;12.878;2022-10-29T16:26:36;97067.19;;;16.41;44.75
44079;BME280;29744;49.078;12.878;2022-10-29T16:31:37;97060.97;;;16.40;44.81
44079;BME280;29744;49.078;12.878;2022-10-29T16:36:37;97062.88;;;16.40;45.00
44079;BME280;29744;49.078;12.878;2022-10-29T16:41:37;97054.75;;;16.40;44.46
44079;BME280;29744;49.078;12.878;2022-10-29T16:46:38;97053.16;;;16.39;44.63
44079;BME280;29744;49.078;12.878;2022-10-29T16:51:38;97055.06;;;16.38;45.02
44079;BME280;29744;49.078;12.878;2022-10-29T16:56:38;97055.84;;;16.39;44.83
44079;BME280;29744;49.078;12.878;2022-10-29T17:01:39;97056.97;;;16.38;44.66
44079;BME280;29744;49.078;12.878;2022-10-29T17:06:39;97054.25;;;16.38;44.69
44079;BME280;29744;49.078;12.878;2022-10-29T17:11:39;97059.69;;;16.38;44.77
44079;BME280;29744;49.078;12.878;2022-10-29T17:16:39;97068.91;;;16.37;45.03
44079;BME280;29744;49.078;12.878;2022-10-29T17:21:40;97052.69;;;16.28;44.81
44079;BME280;29744;49.078;12.878;2022-10-29T17:26:40;97073.84;;;16.35;44.72
44079;BME280;29744;49.078;12.878;2022-10-29T17:31:40;97068.44;;;16.35;44.65
44079;BME280;29744;49.078;12.878;2022-10-29T17:36:41;97077.69;;;16.34;44.72
44079;BME280;29744;49.078;12.878;2022-10-29T17:41:42;97075.28;;;16.32;44.91
44079;BME280;29744;49.078;12.878;2022-10-29T17:46:43;97071.78;;;16.32;44.91
44079;BME280;29744;49.078;12.878;2022-10-29T17:51:43;97067.97;;;16.33;44.65
44079;BME280;29744;49.078;12.878;2022-10-29T17:56:43;97068.28;;;16.31;45.03
44079;BME280;29744;49.078;12.878;2022-10-29T18:01:44;97074.81;;;16.30;44.70
44079;BME280;29744;49.078;12.878;2022-10-29T18:06:44;97073.69;;;16.31;45.14
44079;BME280;29744;49.078;12.878;2022-10-29T18:11:44;97065.56;;;16.31;45.08
44079;BME280;29744;49.078;12.878;2022-10-29T18:16:45;97063.66;;;16.32;44.93
44079;BME280;29744;49.078;12.878;2022-10-29T18:21:45;97072.91;;;16.31;44.98
44079;BME280;29744;49.078;12.878;2022-10-29T18:26:48;97078.31;;;16.31;44.75
44079;BME280;29744;49.078;12.878;2022-10-29T18:31:49;97075.59;;;16.31;44.73
44079;BME280;29744;49.078;12.878;2022-10-29T18:36:49;97078.31;;;16.31;44.98
44079;BME280;29744;49.078;12.878;2022-10-29T18:41:50;97074.50;;;16.32;44.81
44079;BME280;29744;49.078;12.878;2022-10-29T18:46:50;97065.25;;;16.33;45.19
44079;BME280;29744;49.078;12.878;2022-10-29T18:51:52;97055.53;;;16.32;44.94
44079;BME280;29744;49.078;12.878;2022-10-29T18:56:52;97064.47;;;16.32;44.60
44079;BME280;29744;49.078;12.878;2022-10-29T19:01:53;97070.19;;;16.31;44.99
44079;BME280;29744;49.078;12.878;2022-10-29T19:06:53;97054.28;;;16.29;45.07
44079;BME280;29744;49.078;12.878;2022-10-29T19:11:54;97072.09;;;16.30;44.72
44079;BME280;29744;49.078;12.878;2022-10-29T19:16:54;97068.28;;;16.31;44.81
44079;BME280;29744;49.078;12.878;2022-10-29T19:21:55;97059.38;;;16.31;44.95
44079;BME280;29744;49.078;12.878;2022-10-29T19:26:55;97063.66;;;16.32;44.85
44079;BME280;29744;49.078;12.878;2022-10-29T19:31:55;97076.09;;;16.33;45.11
44079;BME280;29744;49.078;12.878;2022-10-29T19:36:55;97072.59;;;16.32;44.79
44079;BME280;29744;49.078;12.878;2022-10-29T19:41:56;97081.50;;;16.33;44.91
44079;BME280;29744;49.078;12.878;2022-10-29T19:46:56;97079.13;;;16.31;45.17
44079;BME280;29744;49.078;12.878;2022-10-29T19:51:56;97079.13;;;16.31;45.03
44079;BME280;29744;49.078;12.878;2022-10-29T19:56:56;97082.94;;;16.30;44.62
44079;BME280;29744;49.078;12.878;2022-10-29T20:01:57;97082.13;;;16.30;44.92
44079;BME280;29744;49.078;12.878;2022-10-29T20:06:57;97080.88;;;16.27;45.27
44079;BME280;29744;49.078;12.878;2022-10-29T20:11:57;97080.88;;;16.27;45.09
44079;BME280;29744;49.078;12.878;2022-10-29T20:16:58;97080.38;;;16.25;45.18
44079;BME280;29744;49.078;12.878;2022-10-29T20:21:58;97086.13;;;16.24;45.10
44079;BME280;29744;49.078;12.878;2022-10-29T20:26:58;97091.53;;;16.24;44.95
44079;BME280;29744;49.078;12.878;2022-10-29T20:31:58;97089.47;;;16.21;44.81
44079;BME280;29744;49.078;12.878;2022-10-29T20:36:59;97086.44;;;16.22;45.04
44079;BME280;29744;49.078;12.878;2022-10-29T20:41:59;97090.25;;;16.21;45.30
44079;BME280;29744;49.078;12.878;2022-10-29T20:46:59;97095.66;;;16.21;45.32
44079;BME280;29744;49.078;12.878;2022-10-29T20:51:59;97089.47;;;16.21;45.14
44079;BME280;29744;49.078;12.878;2022-10-29T20:57:00;97085.97;;;16.20;44.92
44079;BME280;29744;49.078;12.878;2022-10-29T21:02:00;97082.47;;;16.20;45.19
44079;BME280;29744;49.078;12.878;2022-10-29T21:07:00;97090.25;;;16.21;44.89
44079;BME280;29744;49.078;12.878;2022-10-29T21:12:01;97083.56;;;16.19;45.17
44079;BME280;29744;49.078;12.878;2022-10-29T21:17:01;97079.75;;;16.20;44.87
44079;BME280;29744;49.078;12.878;2022-10-29T21:22:01;97062.72;;;16.19;44.94
44079;BME280;29744;49.078;12.878;2022-10-29T21:27:01;97053.81;;;16.19;45.27
44079;BME280;29744;49.078;12.878;2022-10-29T21:32:02;97061.94;;;16.19;45.07
44079;BME280;29744;49.078;12.878;2022-10-29T21:37:02;97073.88;;;16.18;45.42
44079;BME280;29744;49.078;12.878;2022-10-29T21:42:02;97069.25;;;16.18;45.17
44079;BME280;29744;49.078;12.878;2022-10-29T21:47:03;97068.44;;;16.18;45.09
44079;BME280;29744;49.078;12.878;2022-10-29T21:52:03;97068.44;;;16.18;45.21
44079;BME280;29744;49.078;12.878;2022-10-29T21:57:03;97060.34;;;16.18;45.09
44079;BME280;29744;49.078;12.878;2022-10-29T22:02:04;97064.63;;;16.19;45.14
44079;BME280;29744;49.078;12.878;2022-10-29T22:07:05;97060.34;;;16.18;44.79
44079;BME280;29744;49.078;12.878;2022-10-29T22:12:05;97057.63;;;16.18;44.96
44079;BME280;29744;49.078;12.878;2022-10-29T22:17:06;97053.00;;;16.18;45.15
44079;BME280;29744;49.078;12.878;2022-10-29T22:22:06;97053.81;;;16.19;45.05
44079;BME280;29744;49.078;12.878;2022-10-29T22:27:06;97058.91;;;16.20;45.21
44079;BME280;29744;49.078;12.878;2022-10-29T22:32:07;97049.97;;;16.20;45.15
44079;BME280;29744;49.078;12.878;2022-10-29T22:37:07;97053.50;;;16.20;45.13
44079;BME280;29744;49.078;12.878;2022-10-29T22:42:07;97044.56;;;16.20;45.39
44079;BME280;29744;49.078;12.878;2022-10-29T22:47:08;97039.47;;;16.18;45.19
44079;BME280;29744;49.078;12.878;2022-10-29T22:52:08;97042.50;;;16.17;45.25
44079;BME280;29744;49.078;12.878;2022-10-29T22:57:08;97044.09;;;16.18;44.91
44079;BME280;29744;49.078;12.878;2022-10-29T23:02:09;97056.03;;;16.17;45.06
44079;BME280;29744;49.078;12.878;2022-10-29T23:07:09;97056.50;;;16.19;44.88
44079;BME280;29744;49.078;12.878;2022-10-29T23:12:09;97053.81;;;16.19;45.40
44079;BME280;29744;49.078;12.878;2022-10-29T23:17:09;97042.19;;;16.18;45.21
44079;BME280;29744;49.078;12.878;2022-10-29T23:22:10;97046.47;;;16.19;44.83
44079;BME280;29744;49.078;12.878;2022-10-29T23:27:10;97034.88;;;16.19;44.82
44079;BME280;29744;49.078;12.878;2022-10-29T23:32:10;97043.78;;;16.19;45.10
44079;BME280;29744;49.078;12.878;2022-10-29T23:37:10;97044.09;;;16.18;45.35
44079;BME280;29744;49.078;12.878;2022-10-29T23:42:11;97049.03;;;16.16;44.92
44079;BME280;29744;49.078;12.878;2022-10-29T23:47:11;97045.84;;;16.14;45.38
44079;BME280;29744;49.078;12.878;2022-10-29T23:52:11;97037.72;;;16.14;45.20
44079;BME280;29744;49.078;12.878;2022-10-29T23:57:11;97035.03;;;16.14;45.33
